sensor_id;sensor_type;location;lat;lon;timestamp;temperature;humidity
40670;DHT22;26355;45.528;9.234;2023-06-26T00:00:14;28.90;97.10
40670;DHT22;26355;45.528;9.234;2023-06-26T00:02:40;28.90;97.30
40670;DHT22;26355;45.528;9.234;2023-06-26T00:05:06;28.80;97.40
40670;DHT22;26355;45.528;9.234;2023-06-26T00:07:32;28.80;97.50
40670;DHT22;26355;45.528;9.234;2023-06-26T00:09:59;28.80;97.70
40670;DHT22;26355;45.528;9.234;2023-06-26T00:12:25;28.70;97.70
40670;DHT22;26355;45.528;9.234;2023-06-26T00:14:50;28.70;97.50
40670;DHT22;26355;45.528;9.234;2023-06-26T00:17:16;28.60;97.80
40670;DHT22;26355;45.528;9.234;2023-06-26T00:19:42;28.60;98.00
40670;DHT22;26355;45.528;9.234;2023-06-26T00:22:07;28.60;98.20
40670;DHT22;26355;45.528;9.234;2023-06-26T00:24:33;28.60;98.20
40670;DHT22;26355;45.528;9.234;2023-06-26T00:26:58;28.50;98.10
40670;DHT22;26355;45.528;9.234;2023-06-26T00:29:24;28.50;98.30
40670;DHT22;26355;45.528;9.234;2023-06-26T00:31:49;28.50;98.30
40670;DHT22;26355;45.528;9.234;2023-06-26T00:34:15;28.40;98.40
40670;DHT22;26355;45.528;9.234;2023-06-26T00:36:41;28.40;98.50
40670;DHT22;26355;45.528;9.234;2023-06-26T00:39:09;28.40;98.60
40670;DHT22;26355;45.528;9.234;2023-06-26T00:41:36;28.40;98.70
40670;DHT22;26355;45.528;9.234;2023-06-26T00:44:02;28.30;98.80
40670;DHT22;26355;45.528;9.234;2023-06-26T00:46:27;28.20;99.10
40670;DHT22;26355;45.528;9.234;2023-06-26T00:48:54;28.20;98.90
40670;DHT22;26355;45.528;9.234;2023-06-26T00:51:20;28.20;99.00
40670;DHT22;26355;45.528;9.234;2023-06-26T00:53:47;28.10;99.20
40670;DHT22;26355;45.528;9.234;2023-06-26T00:56:13;28.10;99.30
40670;DHT22;26355;45.528;9.234;2023-06-26T00:58:39;28.10;99.30
40670;DHT22;26355;45.528;9.234;2023-06-26T01:01:05;28.10;99.30
40670;DHT22;26355;45.528;9.234;2023-06-26T01:03:34;28.20;99.40
40670;DHT22;26355;45.528;9.234;2023-06-26T01:06:00;28.10;99.30
40670;DHT22;26355;45.528;9.234;2023-06-26T01:08:26;28.10;99.30
40670;DHT22;26355;45.528;9.234;2023-06-26T01:10:53;28.00;99.30
40670;DHT22;26355;45.528;9.234;2023-06-26T01:13:18;28.00;99.40
40670;DHT22;26355;45.528;9.234;2023-06-26T01:15:46;27.90;99.40
40670;DHT22;26355;45.528;9.234;2023-06-26T01:18:11;27.90;99.60
40670;DHT22;26355;45.528;9.234;2023-06-26T01:20:41;27.80;99.70
40670;DHT22;26355;45.528;9.234;2023-06-26T01:28:41;27.80;99.90
40670;DHT22;26355;45.528;9.234;2023-06-26T01:31:07;27.80;99.90
40670;DHT22;26355;45.528;9.234;2023-06-26T01:33:34;27.70;99.80
40670;DHT22;26355;45.528;9.234;2023-06-26T01:36:00;27.70;99.90
40670;DHT22;26355;45.528;9.234;2023-06-26T01:38:26;27.70;99.80
40670;DHT22;26355;45.528;9.234;2023-06-26T01:40:52;27.70;99.80
40670;DHT22;26355;45.528;9.234;2023-06-26T01:49:02;27.60;99.90
40670;DHT22;26355;45.528;9.234;2023-06-26T01:51:31;27.50;99.90
40670;DHT22;26355;45.528;9.234;2023-06-26T01:53:59;27.50;99.90
40670;DHT22;26355;45.528;9.234;2023-06-26T01:56:26;27.50;99.90
40670;DHT22;26355;45.528;9.234;2023-06-26T01:58:54;27.40;99.90
40670;DHT22;26355;45.528;9.234;2023-06-26T02:01:21;27.40;99.90
40670;DHT22;26355;45.528;9.234;2023-06-26T02:03:47;27.30;99.90
40670;DHT22;26355;45.528;9.234;2023-06-26T02:06:13;27.30;99.90
40670;DHT22;26355;45.528;9.234;2023-06-26T02:08:39;27.20;99.90
40670;DHT22;26355;45.528;9.234;2023-06-26T02:11:05;27.20;99.90
40670;DHT22;26355;45.528;9.234;2023-06-26T02:13:30;27.20;99.90
40670;DHT22;26355;45.528;9.234;2023-06-26T02:15:56;27.20;99.90
40670;DHT22;26355;45.528;9.234;2023-06-26T02:18:22;27.20;99.90
40670;DHT22;26355;45.528;9.234;2023-06-26T02:20:48;27.20;99.90
40670;DHT22;26355;45.528;9.234;2023-06-26T02:23:14;27.10;99.90
40670;DHT22;26355;45.528;9.234;2023-06-26T02:25:40;27.10;99.90
40670;DHT22;26355;45.528;9.234;2023-06-26T02:28:05;27.10;99.90
40670;DHT22;26355;45.528;9.234;2023-06-26T02:30:31;27.00;99.90
40670;DHT22;26355;45.528;9.234;2023-06-26T02:32:56;27.00;99.90
40670;DHT22;26355;45.528;9.234;2023-06-26T02:35:22;27.00;99.90
40670;DHT22;26355;45.528;9.234;2023-06-26T02:37:47;27.00;99.90
40670;DHT22;26355;45.528;9.234;2023-06-26T02:40:13;26.90;99.90
40670;DHT22;26355;45.528;9.234;2023-06-26T02:42:38;26.90;99.90
40670;DHT22;26355;45.528;9.234;2023-06-26T02:45:04;26.90;99.90
40670;DHT22;26355;45.528;9.234;2023-06-26T02:47:30;26.90;99.90
40670;DHT22;26355;45.528;9.234;2023-06-26T02:49:56;26.90;99.90
40670;DHT22;26355;45.528;9.234;2023-06-26T02:52:21;26.90;99.90
40670;DHT22;26355;45.528;9.234;2023-06-26T02:54:47;26.90;99.90
40670;DHT22;26355;45.528;9.234;2023-06-26T02:57:12;26.90;99.90
40670;DHT22;26355;45.528;9.234;2023-06-26T02:59:40;26.90;99.90
40670;DHT22;26355;45.528;9.234;2023-06-26T03:02:05;26.80;99.90
40670;DHT22;26355;45.528;9.234;2023-06-26T03:04:31;26.80;99.90
40670;DHT22;26355;45.528;9.234;2023-06-26T03:06:56;26.90;99.90
40670;DHT22;26355;45.528;9.234;2023-06-26T03:09:22;26.80;99.90
40670;DHT22;26355;45.528;9.234;2023-06-26T03:11:48;26.80;99.90
40670;DHT22;26355;45.528;9.234;2023-06-26T03:14:13;26.80;99.90
40670;DHT22;26355;45.528;9.234;2023-06-26T03:16:39;26.80;99.90
40670;DHT22;26355;45.528;9.234;2023-06-26T03:19:05;26.80;99.90
40670;DHT22;26355;45.528;9.234;2023-06-26T03:21:32;26.80;99.90
40670;DHT22;26355;45.528;9.234;2023-06-26T03:23:58;26.90;99.90
40670;DHT22;26355;45.528;9.234;2023-06-26T03:26:23;26.90;99.90
40670;DHT22;26355;45.528;9.234;2023-06-26T03:28:53;26.80;99.90
40670;DHT22;26355;45.528;9.234;2023-06-26T03:31:19;26.80;99.90
40670;DHT22;26355;45.528;9.234;2023-06-26T03:33:44;26.80;99.90
40670;DHT22;26355;45.528;9.234;2023-06-26T03:36:10;26.90;99.90
40670;DHT22;26355;45.528;9.234;2023-06-26T03:38:36;26.90;99.90
40670;DHT22;26355;45.528;9.234;2023-06-26T03:41:01;26.90;99.90
40670;DHT22;26355;45.528;9.234;2023-06-26T03:43:27;26.90;99.90
40670;DHT22;26355;45.528;9.234;2023-06-26T03:45:53;26.90;99.90
40670;DHT22;26355;45.528;9.234;2023-06-26T03:48:19;26.90;99.90
40670;DHT22;26355;45.528;9.234;2023-06-26T03:50:45;26.90;99.90
40670;DHT22;26355;45.528;9.234;2023-06-26T03:53:10;26.90;99.90
40670;DHT22;26355;45.528;9.234;2023-06-26T03:55:37;26.90;99.90
40670;DHT22;26355;45.528;9.234;2023-06-26T03:58:03;26.80;99.90
40670;DHT22;26355;45.528;9.234;2023-06-26T04:00:29;26.80;99.90
40670;DHT22;26355;45.528;9.234;2023-06-26T04:02:55;26.70;99.90
40670;DHT22;26355;45.528;9.234;2023-06-26T04:05:20;26.70;99.90
40670;DHT22;26355;45.528;9.234;2023-06-26T04:07:49;26.80;99.90
40670;DHT22;26355;45.528;9.234;2023-06-26T04:10:14;26.80;99.90
40670;DHT22;26355;45.528;9.234;2023-06-26T04:12:40;26.80;99.90
40670;DHT22;26355;45.528;9.234;2023-06-26T04:15:06;26.70;99.90
40670;DHT22;26355;45.528;9.234;2023-06-26T04:17:31;26.80;99.90
40670;DHT22;26355;45.528;9.234;2023-06-26T04:19:57;26.80;99.90
40670;DHT22;26355;45.528;9.234;2023-06-26T04:22:22;26.80;99.90
40670;DHT22;26355;45.528;9.234;2023-06-26T04:24:48;26.80;99.90
40670;DHT22;26355;45.528;9.234;2023-06-26T04:27:14;26.80;99.90
40670;DHT22;26355;45.528;9.234;2023-06-26T04:29:40;26.80;99.90
40670;DHT22;26355;45.528;9.234;2023-06-26T04:32:06;26.80;99.90
40670;DHT22;26355;45.528;9.234;2023-06-26T04:34:32;26.70;99.90
40670;DHT22;26355;45.528;9.234;2023-06-26T04:36:59;26.60;99.90
40670;DHT22;26355;45.528;9.234;2023-06-26T04:39:25;26.60;99.90
40670;DHT22;26355;45.528;9.234;2023-06-26T04:41:50;26.60;99.90
40670;DHT22;26355;45.528;9.234;2023-06-26T04:44:16;26.60;99.90
40670;DHT22;26355;45.528;9.234;2023-06-26T04:46:41;26.50;99.90
40670;DHT22;26355;45.528;9.234;2023-06-26T04:49:08;26.50;99.90
40670;DHT22;26355;45.528;9.234;2023-06-26T04:51:33;26.50;99.90
40670;DHT22;26355;45.528;9.234;2023-06-26T04:54:03;26.50;99.90
40670;DHT22;26355;45.528;9.234;2023-06-26T04:56:29;26.50;99.90
40670;DHT22;26355;45.528;9.234;2023-06-26T04:58:56;26.50;99.90
40670;DHT22;26355;45.528;9.234;2023-06-26T05:01:21;26.60;99.90
40670;DHT22;26355;45.528;9.234;2023-06-26T05:03:47;26.60;99.90
40670;DHT22;26355;45.528;9.234;2023-06-26T05:06:13;26.60;99.90
40670;DHT22;26355;45.528;9.234;2023-06-26T05:08:38;26.60;99.90
40670;DHT22;26355;45.528;9.234;2023-06-26T05:11:04;26.70;99.90
40670;DHT22;26355;45.528;9.234;2023-06-26T05:13:29;26.80;99.90
40670;DHT22;26355;45.528;9.234;2023-06-26T05:15:55;26.90;99.90
40670;DHT22;26355;45.528;9.234;2023-06-26T05:18:20;26.90;99.90
40670;DHT22;26355;45.528;9.234;2023-06-26T05:20:46;27.00;99.90
40670;DHT22;26355;45.528;9.234;2023-06-26T05:23:12;27.10;99.90
40670;DHT22;26355;45.528;9.234;2023-06-26T05:25:38;27.10;99.90
40670;DHT22;26355;45.528;9.234;2023-06-26T05:28:05;27.30;99.90
40670;DHT22;26355;45.528;9.234;2023-06-26T05:30:31;27.40;99.90
40670;DHT22;26355;45.528;9.234;2023-06-26T05:33:00;27.50;99.90
40670;DHT22;26355;45.528;9.234;2023-06-26T05:35:28;27.50;99.90
40670;DHT22;26355;45.528;9.234;2023-06-26T05:37:55;27.50;99.90
40670;DHT22;26355;45.528;9.234;2023-06-26T05:40:21;27.50;99.90
40670;DHT22;26355;45.528;9.234;2023-06-26T05:42:47;27.50;99.90
40670;DHT22;26355;45.528;9.234;2023-06-26T05:45:13;27.50;99.90
40670;DHT22;26355;45.528;9.234;2023-06-26T05:47:39;27.50;99.90
40670;DHT22;26355;45.528;9.234;2023-06-26T05:50:06;27.50;99.90
40670;DHT22;26355;45.528;9.234;2023-06-26T05:52:32;27.50;99.90
40670;DHT22;26355;45.528;9.234;2023-06-26T05:54:58;27.50;99.90
40670;DHT22;26355;45.528;9.234;2023-06-26T05:57:28;27.60;99.90
40670;DHT22;26355;45.528;9.234;2023-06-26T05:59:54;27.60;99.90
40670;DHT22;26355;45.528;9.234;2023-06-26T06:02:19;27.60;99.90
40670;DHT22;26355;45.528;9.234;2023-06-26T06:04:45;27.70;99.90
40670;DHT22;26355;45.528;9.234;2023-06-26T06:07:11;27.70;99.90
40670;DHT22;26355;45.528;9.234;2023-06-26T06:09:36;27.80;99.90
40670;DHT22;26355;45.528;9.234;2023-06-26T06:12:06;27.90;99.90
40670;DHT22;26355;45.528;9.234;2023-06-26T06:14:33;28.10;99.90
40670;DHT22;26355;45.528;9.234;2023-06-26T06:16:58;28.30;99.90
40670;DHT22;26355;45.528;9.234;2023-06-26T06:19:24;28.60;99.90
40670;DHT22;26355;45.528;9.234;2023-06-26T06:21:49;28.70;99.90
40670;DHT22;26355;45.528;9.234;2023-06-26T06:24:15;28.90;99.90
40670;DHT22;26355;45.528;9.234;2023-06-26T06:26:40;29.10;99.90
40670;DHT22;26355;45.528;9.234;2023-06-26T06:29:06;29.20;99.90
40670;DHT22;26355;45.528;9.234;2023-06-26T06:31:32;29.40;99.90
40670;DHT22;26355;45.528;9.234;2023-06-26T06:33:57;29.50;99.90
40670;DHT22;26355;45.528;9.234;2023-06-26T06:36:23;29.60;99.90
40670;DHT22;26355;45.528;9.234;2023-06-26T06:38:49;29.80;99.90
40670;DHT22;26355;45.528;9.234;2023-06-26T06:41:14;29.80;99.70
40670;DHT22;26355;45.528;9.234;2023-06-26T06:43:40;29.90;99.30
40670;DHT22;26355;45.528;9.234;2023-06-26T06:46:06;29.80;98.90
40670;DHT22;26355;45.528;9.234;2023-06-26T06:48:32;29.60;98.50
40670;DHT22;26355;45.528;9.234;2023-06-26T06:50:57;29.50;98.70
40670;DHT22;26355;45.528;9.234;2023-06-26T06:53:23;29.60;98.60
40670;DHT22;26355;45.528;9.234;2023-06-26T06:55:49;29.60;98.50
40670;DHT22;26355;45.528;9.234;2023-06-26T06:58:15;29.50;98.60
40670;DHT22;26355;45.528;9.234;2023-06-26T07:00:48;29.50;98.60
40670;DHT22;26355;45.528;9.234;2023-06-26T07:03:14;29.50;98.60
40670;DHT22;26355;45.528;9.234;2023-06-26T07:05:41;29.80;98.50
40670;DHT22;26355;45.528;9.234;2023-06-26T07:08:07;29.60;98.50
40670;DHT22;26355;45.528;9.234;2023-06-26T07:10:34;29.40;98.60
40670;DHT22;26355;45.528;9.234;2023-06-26T07:12:59;29.60;98.60
40670;DHT22;26355;45.528;9.234;2023-06-26T07:15:25;29.50;98.50
40670;DHT22;26355;45.528;9.234;2023-06-26T07:17:50;29.70;98.50
40670;DHT22;26355;45.528;9.234;2023-06-26T07:20:16;29.70;98.30
40670;DHT22;26355;45.528;9.234;2023-06-26T07:22:42;29.80;98.20
40670;DHT22;26355;45.528;9.234;2023-06-26T07:25:10;29.90;98.00
40670;DHT22;26355;45.528;9.234;2023-06-26T07:27:39;30.00;97.90
40670;DHT22;26355;45.528;9.234;2023-06-26T07:30:06;30.20;97.70
40670;DHT22;26355;45.528;9.234;2023-06-26T07:32:34;30.30;97.60
40670;DHT22;26355;45.528;9.234;2023-06-26T07:35:00;30.30;97.40
40670;DHT22;26355;45.528;9.234;2023-06-26T07:37:25;30.20;97.50
40670;DHT22;26355;45.528;9.234;2023-06-26T07:39:51;30.30;97.40
40670;DHT22;26355;45.528;9.234;2023-06-26T07:42:17;30.30;97.20
40670;DHT22;26355;45.528;9.234;2023-06-26T07:44:42;30.20;97.10
40670;DHT22;26355;45.528;9.234;2023-06-26T07:47:08;30.30;97.10
40670;DHT22;26355;45.528;9.234;2023-06-26T07:49:34;30.40;97.00
40670;DHT22;26355;45.528;9.234;2023-06-26T07:52:00;30.50;97.00
40670;DHT22;26355;45.528;9.234;2023-06-26T07:54:25;30.60;97.00
40670;DHT22;26355;45.528;9.234;2023-06-26T07:56:59;30.70;96.80
40670;DHT22;26355;45.528;9.234;2023-06-26T07:59:26;30.80;96.60
40670;DHT22;26355;45.528;9.234;2023-06-26T08:01:53;30.90;96.30
40670;DHT22;26355;45.528;9.234;2023-06-26T08:04:21;30.80;96.20
40670;DHT22;26355;45.528;9.234;2023-06-26T08:07:05;30.70;96.30
40670;DHT22;26355;45.528;9.234;2023-06-26T08:09:31;30.70;95.80
40670;DHT22;26355;45.528;9.234;2023-06-26T08:11:58;30.70;96.00
40670;DHT22;26355;45.528;9.234;2023-06-26T08:14:24;30.80;96.30
40670;DHT22;26355;45.528;9.234;2023-06-26T08:16:50;31.00;96.10
40670;DHT22;26355;45.528;9.234;2023-06-26T08:19:16;31.00;95.90
40670;DHT22;26355;45.528;9.234;2023-06-26T08:21:44;31.10;95.70
40670;DHT22;26355;45.528;9.234;2023-06-26T08:24:10;31.10;95.70
40670;DHT22;26355;45.528;9.234;2023-06-26T08:26:36;31.00;95.70
40670;DHT22;26355;45.528;9.234;2023-06-26T08:29:02;30.90;95.70
40670;DHT22;26355;45.528;9.234;2023-06-26T08:31:35;31.00;95.70
40670;DHT22;26355;45.528;9.234;2023-06-26T08:34:02;30.90;95.40
40670;DHT22;26355;45.528;9.234;2023-06-26T08:36:28;30.80;95.80
40670;DHT22;26355;45.528;9.234;2023-06-26T08:38:54;30.60;95.70
40670;DHT22;26355;45.528;9.234;2023-06-26T08:41:19;30.80;95.80
40670;DHT22;26355;45.528;9.234;2023-06-26T08:43:45;31.00;95.90
40670;DHT22;26355;45.528;9.234;2023-06-26T08:46:11;31.20;95.70
40670;DHT22;26355;45.528;9.234;2023-06-26T08:48:37;31.10;95.50
40670;DHT22;26355;45.528;9.234;2023-06-26T08:51:09;31.10;95.50
40670;DHT22;26355;45.528;9.234;2023-06-26T08:53:48;31.00;95.70
40670;DHT22;26355;45.528;9.234;2023-06-26T08:56:17;31.10;95.20
40670;DHT22;26355;45.528;9.234;2023-06-26T08:58:44;31.30;95.40
40670;DHT22;26355;45.528;9.234;2023-06-26T09:01:10;31.40;95.30
40670;DHT22;26355;45.528;9.234;2023-06-26T09:03:36;31.40;95.50
40670;DHT22;26355;45.528;9.234;2023-06-26T09:06:02;31.40;95.30
40670;DHT22;26355;45.528;9.234;2023-06-26T09:08:27;31.40;95.40
40670;DHT22;26355;45.528;9.234;2023-06-26T09:10:53;31.60;95.30
40670;DHT22;26355;45.528;9.234;2023-06-26T09:13:19;31.60;95.00
40670;DHT22;26355;45.528;9.234;2023-06-26T09:15:45;31.50;95.10
40670;DHT22;26355;45.528;9.234;2023-06-26T09:18:12;31.60;95.20
40670;DHT22;26355;45.528;9.234;2023-06-26T09:20:37;31.70;95.20
40670;DHT22;26355;45.528;9.234;2023-06-26T09:23:04;31.80;95.00
40670;DHT22;26355;45.528;9.234;2023-06-26T09:25:30;31.70;94.80
40670;DHT22;26355;45.528;9.234;2023-06-26T09:27:56;31.40;94.90
40670;DHT22;26355;45.528;9.234;2023-06-26T09:30:22;31.30;95.10
40670;DHT22;26355;45.528;9.234;2023-06-26T09:32:48;31.40;95.30
40670;DHT22;26355;45.528;9.234;2023-06-26T09:35:16;31.40;95.00
40670;DHT22;26355;45.528;9.234;2023-06-26T09:37:42;31.60;95.00
40670;DHT22;26355;45.528;9.234;2023-06-26T09:40:09;31.60;95.00
40670;DHT22;26355;45.528;9.234;2023-06-26T09:42:35;31.70;95.00
40670;DHT22;26355;45.528;9.234;2023-06-26T09:45:02;31.80;95.00
40670;DHT22;26355;45.528;9.234;2023-06-26T09:47:30;31.80;95.00
40670;DHT22;26355;45.528;9.234;2023-06-26T09:49:57;31.60;94.60
40670;DHT22;26355;45.528;9.234;2023-06-26T09:52:26;31.60;94.90
40670;DHT22;26355;45.528;9.234;2023-06-26T09:55:07;31.50;94.80
40670;DHT22;26355;45.528;9.234;2023-06-26T09:57:35;31.60;94.70
40670;DHT22;26355;45.528;9.234;2023-06-26T10:00:02;31.80;94.70
40670;DHT22;26355;45.528;9.234;2023-06-26T10:02:28;31.80;94.60
40670;DHT22;26355;45.528;9.234;2023-06-26T10:04:54;32.00;94.50
40670;DHT22;26355;45.528;9.234;2023-06-26T10:07:20;32.00;94.40
40670;DHT22;26355;45.528;9.234;2023-06-26T10:09:49;32.00;94.20
40670;DHT22;26355;45.528;9.234;2023-06-26T10:12:27;32.10;94.40
40670;DHT22;26355;45.528;9.234;2023-06-26T10:14:53;32.20;94.60
40670;DHT22;26355;45.528;9.234;2023-06-26T10:17:21;32.40;94.40
40670;DHT22;26355;45.528;9.234;2023-06-26T10:19:47;32.60;94.40
40670;DHT22;26355;45.528;9.234;2023-06-26T10:22:15;32.70;94.20
40670;DHT22;26355;45.528;9.234;2023-06-26T10:24:43;32.60;94.00
40670;DHT22;26355;45.528;9.234;2023-06-26T10:27:19;32.70;94.00
40670;DHT22;26355;45.528;9.234;2023-06-26T10:29:56;32.70;94.00
40670;DHT22;26355;45.528;9.234;2023-06-26T10:32:25;32.70;94.10
40670;DHT22;26355;45.528;9.234;2023-06-26T10:34:52;32.80;93.90
40670;DHT22;26355;45.528;9.234;2023-06-26T10:37:18;32.80;93.80
40670;DHT22;26355;45.528;9.234;2023-06-26T10:42:18;32.80;93.70
40670;DHT22;26355;45.528;9.234;2023-06-26T10:44:46;32.80;93.80
40670;DHT22;26355;45.528;9.234;2023-06-26T10:47:29;32.90;93.80
40670;DHT22;26355;45.528;9.234;2023-06-26T10:49:55;32.80;93.40
40670;DHT22;26355;45.528;9.234;2023-06-26T10:52:21;32.90;93.70
40670;DHT22;26355;45.528;9.234;2023-06-26T10:54:46;33.10;93.70
40670;DHT22;26355;45.528;9.234;2023-06-26T10:57:23;32.90;93.50
40670;DHT22;26355;45.528;9.234;2023-06-26T11:00:11;32.90;93.50
40670;DHT22;26355;45.528;9.234;2023-06-26T11:02:52;33.10;93.30
40670;DHT22;26355;45.528;9.234;2023-06-26T11:05:32;32.90;93.40
40670;DHT22;26355;45.528;9.234;2023-06-26T11:08:08;33.00;93.50
40670;DHT22;26355;45.528;9.234;2023-06-26T11:10:54;33.20;93.90
40670;DHT22;26355;45.528;9.234;2023-06-26T11:13:21;33.20;93.60
40670;DHT22;26355;45.528;9.234;2023-06-26T11:15:48;33.10;93.40
40670;DHT22;26355;45.528;9.234;2023-06-26T11:18:14;33.30;93.60
40670;DHT22;26355;45.528;9.234;2023-06-26T11:20:40;33.30;93.60
40670;DHT22;26355;45.528;9.234;2023-06-26T11:23:08;33.30;93.50
40670;DHT22;26355;45.528;9.234;2023-06-26T11:25:37;33.10;93.30
40670;DHT22;26355;45.528;9.234;2023-06-26T11:28:09;33.20;93.10
40670;DHT22;26355;45.528;9.234;2023-06-26T11:30:36;33.40;93.40
40670;DHT22;26355;45.528;9.234;2023-06-26T11:33:11;33.50;93.20
40670;DHT22;26355;45.528;9.234;2023-06-26T11:35:36;33.40;93.20
40670;DHT22;26355;45.528;9.234;2023-06-26T11:38:03;33.40;93.10
40670;DHT22;26355;45.528;9.234;2023-06-26T11:40:35;33.40;93.30
40670;DHT22;26355;45.528;9.234;2023-06-26T11:43:02;33.40;93.50
40670;DHT22;26355;45.528;9.234;2023-06-26T11:45:29;32.90;93.60
40670;DHT22;26355;45.528;9.234;2023-06-26T11:47:58;33.00;93.70
40670;DHT22;26355;45.528;9.234;2023-06-26T11:50:25;33.10;94.10
40670;DHT22;26355;45.528;9.234;2023-06-26T11:52:57;33.40;93.70
40670;DHT22;26355;45.528;9.234;2023-06-26T11:55:26;33.40;93.30
40670;DHT22;26355;45.528;9.234;2023-06-26T11:57:56;33.40;93.30
40670;DHT22;26355;45.528;9.234;2023-06-26T12:00:22;33.30;93.50
40670;DHT22;26355;45.528;9.234;2023-06-26T12:02:48;33.30;93.60
40670;DHT22;26355;45.528;9.234;2023-06-26T12:05:16;33.50;93.60
40670;DHT22;26355;45.528;9.234;2023-06-26T12:07:46;33.60;93.30
40670;DHT22;26355;45.528;9.234;2023-06-26T12:10:13;33.70;93.20
40670;DHT22;26355;45.528;9.234;2023-06-26T12:12:41;33.90;93.60
40670;DHT22;26355;45.528;9.234;2023-06-26T12:15:08;34.10;93.20
40670;DHT22;26355;45.528;9.234;2023-06-26T12:17:37;34.20;92.80
40670;DHT22;26355;45.528;9.234;2023-06-26T12:20:05;34.20;92.40
40670;DHT22;26355;45.528;9.234;2023-06-26T12:22:34;34.10;92.50
40670;DHT22;26355;45.528;9.234;2023-06-26T12:25:01;34.10;92.20
40670;DHT22;26355;45.528;9.234;2023-06-26T12:27:27;34.10;92.70
40670;DHT22;26355;45.528;9.234;2023-06-26T12:29:54;34.20;92.40
40670;DHT22;26355;45.528;9.234;2023-06-26T12:32:23;34.30;92.60
40670;DHT22;26355;45.528;9.234;2023-06-26T12:34:50;34.30;92.70
40670;DHT22;26355;45.528;9.234;2023-06-26T12:37:16;34.10;92.60
40670;DHT22;26355;45.528;9.234;2023-06-26T12:42:25;34.20;92.90
40670;DHT22;26355;45.528;9.234;2023-06-26T12:44:52;34.20;92.70
40670;DHT22;26355;45.528;9.234;2023-06-26T12:47:19;34.30;92.60
40670;DHT22;26355;45.528;9.234;2023-06-26T12:49:45;34.30;92.60
40670;DHT22;26355;45.528;9.234;2023-06-26T12:52:12;34.30;92.30
40670;DHT22;26355;45.528;9.234;2023-06-26T12:54:40;34.30;92.40
40670;DHT22;26355;45.528;9.234;2023-06-26T12:57:07;34.40;92.20
40670;DHT22;26355;45.528;9.234;2023-06-26T12:59:35;34.50;92.30
40670;DHT22;26355;45.528;9.234;2023-06-26T13:02:00;34.60;92.60
40670;DHT22;26355;45.528;9.234;2023-06-26T13:04:26;34.60;92.10
40670;DHT22;26355;45.528;9.234;2023-06-26T13:06:52;34.60;92.20
40670;DHT22;26355;45.528;9.234;2023-06-26T13:09:21;34.40;92.10
40670;DHT22;26355;45.528;9.234;2023-06-26T13:11:47;34.30;92.10
40670;DHT22;26355;45.528;9.234;2023-06-26T13:14:12;34.00;92.20
40670;DHT22;26355;45.528;9.234;2023-06-26T13:16:39;34.10;92.50
40670;DHT22;26355;45.528;9.234;2023-06-26T13:19:04;34.20;92.40
40670;DHT22;26355;45.528;9.234;2023-06-26T13:21:30;34.30;92.50
40670;DHT22;26355;45.528;9.234;2023-06-26T13:23:56;34.50;92.50
40670;DHT22;26355;45.528;9.234;2023-06-26T13:26:23;34.60;92.50
40670;DHT22;26355;45.528;9.234;2023-06-26T13:28:49;34.70;92.60
40670;DHT22;26355;45.528;9.234;2023-06-26T13:31:15;34.80;92.30
40670;DHT22;26355;45.528;9.234;2023-06-26T13:33:41;34.90;91.90
40670;DHT22;26355;45.528;9.234;2023-06-26T13:36:07;34.80;92.00
40670;DHT22;26355;45.528;9.234;2023-06-26T13:38:33;34.80;92.00
40670;DHT22;26355;45.528;9.234;2023-06-26T13:40:59;34.90;92.00
40670;DHT22;26355;45.528;9.234;2023-06-26T13:43:26;34.90;91.60
40670;DHT22;26355;45.528;9.234;2023-06-26T13:45:53;34.90;91.60
40670;DHT22;26355;45.528;9.234;2023-06-26T13:48:19;34.90;91.70
40670;DHT22;26355;45.528;9.234;2023-06-26T13:50:45;34.90;91.80
40670;DHT22;26355;45.528;9.234;2023-06-26T13:53:10;34.80;91.80
40670;DHT22;26355;45.528;9.234;2023-06-26T13:55:36;34.90;92.00
40670;DHT22;26355;45.528;9.234;2023-06-26T13:58:06;34.90;92.00
40670;DHT22;26355;45.528;9.234;2023-06-26T14:00:33;35.00;91.90
40670;DHT22;26355;45.528;9.234;2023-06-26T14:03:02;34.90;91.80
40670;DHT22;26355;45.528;9.234;2023-06-26T14:05:29;34.90;91.60
40670;DHT22;26355;45.528;9.234;2023-06-26T14:07:54;34.90;91.70
40670;DHT22;26355;45.528;9.234;2023-06-26T14:10:21;34.90;91.80
40670;DHT22;26355;45.528;9.234;2023-06-26T14:12:47;34.70;91.80
40670;DHT22;26355;45.528;9.234;2023-06-26T14:15:13;34.60;92.00
40670;DHT22;26355;45.528;9.234;2023-06-26T14:17:38;34.50;91.80
40670;DHT22;26355;45.528;9.234;2023-06-26T14:20:10;34.40;91.80
40670;DHT22;26355;45.528;9.234;2023-06-26T14:22:39;34.30;92.00
40670;DHT22;26355;45.528;9.234;2023-06-26T14:25:06;34.30;92.00
40670;DHT22;26355;45.528;9.234;2023-06-26T14:27:32;34.30;92.20
40670;DHT22;26355;45.528;9.234;2023-06-26T14:29:58;34.30;92.10
40670;DHT22;26355;45.528;9.234;2023-06-26T14:32:23;34.40;92.20
40670;DHT22;26355;45.528;9.234;2023-06-26T14:34:49;34.40;92.00
40670;DHT22;26355;45.528;9.234;2023-06-26T14:37:14;34.50;92.00
40670;DHT22;26355;45.528;9.234;2023-06-26T14:39:40;34.60;92.10
40670;DHT22;26355;45.528;9.234;2023-06-26T14:42:07;34.60;92.00
40670;DHT22;26355;45.528;9.234;2023-06-26T14:44:32;34.60;92.00
40670;DHT22;26355;45.528;9.234;2023-06-26T14:46:58;34.60;92.20
40670;DHT22;26355;45.528;9.234;2023-06-26T14:49:24;34.40;92.20
40670;DHT22;26355;45.528;9.234;2023-06-26T14:51:49;34.30;92.40
40670;DHT22;26355;45.528;9.234;2023-06-26T14:54:15;34.30;92.40
40670;DHT22;26355;45.528;9.234;2023-06-26T14:56:40;34.30;92.40
40670;DHT22;26355;45.528;9.234;2023-06-26T14:59:06;34.40;92.20
40670;DHT22;26355;45.528;9.234;2023-06-26T15:01:33;34.40;92.20
40670;DHT22;26355;45.528;9.234;2023-06-26T15:03:59;34.40;92.10
40670;DHT22;26355;45.528;9.234;2023-06-26T15:06:24;34.40;92.30
40670;DHT22;26355;45.528;9.234;2023-06-26T15:08:50;34.40;92.30
40670;DHT22;26355;45.528;9.234;2023-06-26T15:11:15;34.50;92.30
40670;DHT22;26355;45.528;9.234;2023-06-26T15:13:41;34.50;92.20
40670;DHT22;26355;45.528;9.234;2023-06-26T15:16:06;34.60;92.40
40670;DHT22;26355;45.528;9.234;2023-06-26T15:18:32;34.60;92.30
40670;DHT22;26355;45.528;9.234;2023-06-26T15:20:58;34.60;92.30
40670;DHT22;26355;45.528;9.234;2023-06-26T15:23:23;34.70;92.30
40670;DHT22;26355;45.528;9.234;2023-06-26T15:25:49;34.70;92.00
40670;DHT22;26355;45.528;9.234;2023-06-26T15:28:14;34.80;92.10
40670;DHT22;26355;45.528;9.234;2023-06-26T15:30:40;34.70;92.10
40670;DHT22;26355;45.528;9.234;2023-06-26T15:33:06;34.50;92.00
40670;DHT22;26355;45.528;9.234;2023-06-26T15:35:31;34.50;92.10
40670;DHT22;26355;45.528;9.234;2023-06-26T15:37:57;34.50;92.20
40670;DHT22;26355;45.528;9.234;2023-06-26T15:40:22;34.50;92.20
40670;DHT22;26355;45.528;9.234;2023-06-26T15:42:49;34.60;92.20